createdAt,value
2019-02-11T00:02:12.096Z,95612.08
2019-02-11T00:04:39.303Z,95622.00
2019-02-11T00:07:05.137Z,95612.38
2019-02-11T00:09:34.229Z,95626.73
2019-02-11T00:12:00.316Z,95639.30
2019-02-11T00:14:29.217Z,95634.70
2019-02-11T00:16:55.061Z,95652.11
2019-02-11T00:19:24.188Z,95654.38
2019-02-11T00:21:50.000Z,95666.42
2019-02-11T00:24:16.138Z,95660.06
2019-02-11T00:26:42.230Z,95657.18
2019-02-11T00:29:08.338Z,95658.09
2019-02-11T00:31:36.987Z,95658.47
2019-02-11T00:34:03.220Z,95669.53
2019-02-11T00:36:32.215Z,95662.26
2019-02-11T00:38:58.213Z,95654.10
2019-02-11T00:41:27.094Z,95657.11
2019-02-11T00:43:52.988Z,95679.66
2019-02-11T00:46:19.708Z,95661.44
2019-02-11T00:48:45.548Z,95665.67
2019-02-11T00:51:14.644Z,95664.45
2019-02-11T00:53:40.780Z,95664.16
2019-02-11T00:56:10.299Z,95652.58
2019-02-11T00:58:36.165Z,95668.69
2019-02-11T01:01:02.005Z,95655.76
2019-02-11T01:03:27.831Z,95661.81
2019-02-11T01:05:53.663Z,95649.63
2019-02-11T01:08:22.297Z,95653.49
2019-02-11T01:10:48.138Z,95656.81
2019-02-11T01:13:15.767Z,95660.59
2019-02-11T01:15:41.861Z,95666.73
2019-02-11T01:18:10.854Z,95670.96
2019-02-11T01:20:36.969Z,95621.80
2019-02-11T01:23:06.033Z,95667.84
2019-02-11T01:25:31.879Z,95674.28
2019-02-11T01:28:00.495Z,95682.98
2019-02-11T01:30:26.327Z,95517.72
2019-02-11T01:32:54.879Z,95696.92
2019-02-11T01:35:20.721Z,95722.41
2019-02-11T01:37:46.526Z,95698.72
2019-02-11T01:40:12.356Z,95700.48
2019-02-11T01:42:38.174Z,95701.46
2019-02-11T01:45:08.886Z,95714.02
2019-02-11T01:47:34.974Z,95709.56
2019-02-11T01:50:01.094Z,95715.25
2019-02-11T01:52:26.958Z,95711.16
2019-02-11T01:54:56.035Z,95719.86
2019-02-11T01:57:21.976Z,95724.70
2019-02-11T01:59:50.936Z,95729.67
2019-02-11T02:02:16.777Z,95417.58
2019-02-11T02:04:45.792Z,95732.63
2019-02-11T02:07:11.673Z,95757.69
2019-02-11T02:09:43.594Z,95748.75
2019-02-11T02:12:09.431Z,95772.08
2019-02-11T02:14:35.244Z,95762.59
2019-02-11T02:17:01.385Z,95760.87
2019-02-11T02:19:27.602Z,95769.71
2019-02-11T02:21:53.693Z,95767.98
2019-02-11T02:24:19.888Z,95769.34
2019-02-11T02:26:45.764Z,95765.41
2019-02-11T02:29:11.943Z,95781.52
2019-02-11T02:31:40.793Z,95782.91
2019-02-11T02:34:06.611Z,95781.22
2019-02-11T02:36:35.351Z,95788.50
2019-02-11T02:39:01.162Z,95787.06
2019-02-11T02:41:30.522Z,95796.38
2019-02-11T02:43:56.344Z,95807.96
2019-02-11T02:46:25.269Z,95800.16
2019-02-11T02:48:51.105Z,95825.33
2019-02-11T02:51:16.965Z,95815.73
2019-02-11T02:53:43.055Z,95810.40
2019-02-11T02:56:08.923Z,95809.59
2019-02-11T02:58:37.500Z,95813.51
2019-02-11T03:01:03.352Z,95837.09
2019-02-11T03:03:32.217Z,95823.73
2019-02-11T03:05:58.042Z,95816.36
2019-02-11T03:08:27.198Z,95817.65
2019-02-11T03:10:53.037Z,95845.95
2019-02-11T03:13:21.985Z,95835.56
2019-02-11T03:15:47.798Z,95848.73
2019-02-11T03:18:16.905Z,95863.05
2019-02-11T03:20:42.725Z,95879.77
2019-02-11T03:23:11.635Z,95879.05
2019-02-11T03:25:37.757Z,95881.27
2019-02-11T03:28:03.574Z,95879.40
2019-02-11T03:30:29.675Z,95873.45
2019-02-11T03:32:55.800Z,95869.59
2019-02-11T03:35:21.651Z,95875.05
2019-02-11T03:37:47.745Z,95872.39
2019-02-11T03:40:18.346Z,95880.89
2019-02-11T03:42:44.182Z,95876.89
2019-02-11T03:45:12.306Z,95884.86
2019-02-11T03:47:38.386Z,95886.38
2019-02-11T03:50:08.625Z,95898.59
2019-02-11T03:52:34.435Z,95895.48
2019-02-11T03:55:00.581Z,95897.91
2019-02-11T03:57:26.730Z,95904.60
2019-02-11T03:59:55.380Z,95914.35
2019-02-11T04:02:21.209Z,95915.64
2019-02-11T04:04:47.029Z,95903.90
2019-02-11T04:07:13.031Z,95915.91
2019-02-11T04:09:39.175Z,95926.30
2019-02-11T04:12:09.638Z,95925.66
2019-02-11T04:14:35.462Z,95945.20
2019-02-11T04:17:02.427Z,95886.06
2019-02-11T04:19:28.274Z,95943.45
2019-02-11T04:22:03.132Z,95906.85
2019-02-11T04:24:29.011Z,95955.66
2019-02-11T04:26:55.102Z,95962.52
2019-02-11T04:29:20.942Z,95968.95
2019-02-11T04:31:47.156Z,95973.59
2019-02-11T04:34:13.021Z,95915.11
2019-02-11T04:36:41.880Z,95973.97
2019-02-11T04:39:07.716Z,96002.38
2019-02-11T04:41:33.515Z,95997.38
2019-02-11T04:43:59.617Z,96003.55
2019-02-11T04:46:25.450Z,96000.06
2019-02-11T04:48:54.012Z,96002.17
2019-02-11T04:51:19.850Z,95992.30
2019-02-11T04:53:48.513Z,95999.80
2019-02-11T04:56:14.384Z,95992.56
2019-02-11T04:58:42.405Z,96013.19
2019-02-11T05:01:08.205Z,96015.37
2019-02-11T05:03:37.029Z,96012.04
2019-02-11T05:06:02.857Z,96023.61
2019-02-11T05:08:33.559Z,96039.85
2019-02-11T05:10:59.692Z,96028.75
2019-02-11T05:13:28.370Z,96040.44
2019-02-11T05:15:54.202Z,96048.41
2019-02-11T05:18:20.047Z,96052.80
2019-02-11T05:20:45.858Z,96040.23
2019-02-11T05:23:11.972Z,96049.55
2019-02-11T05:25:40.815Z,96058.55
2019-02-11T05:28:06.990Z,96054.64
2019-02-11T05:30:36.197Z,96052.98
2019-02-11T05:33:02.063Z,96066.65
2019-02-11T05:35:27.872Z,96065.36
2019-02-11T05:37:53.998Z,96055.34
2019-02-11T05:40:22.829Z,96066.98
2019-02-11T05:42:48.970Z,96072.83
2019-02-11T05:45:17.868Z,96071.92
2019-02-11T05:47:43.654Z,96100.09
2019-02-11T05:50:12.815Z,96087.23
2019-02-11T05:52:38.952Z,96112.05
2019-02-11T05:55:05.764Z,96094.43
2019-02-11T05:57:31.611Z,96099.05
2019-02-11T05:59:57.740Z,96107.28
2019-02-11T06:02:26.349Z,96115.77
2019-02-11T06:04:52.285Z,96117.52
2019-02-11T06:07:21.176Z,96127.01
2019-02-11T06:09:47.292Z,96132.30
2019-02-11T06:12:13.442Z,96138.15
2019-02-11T06:14:39.273Z,96130.48
2019-02-11T06:17:08.163Z,96140.34
2019-02-11T06:19:34.300Z,96149.72
2019-02-11T06:22:03.089Z,96167.77
2019-02-11T06:24:28.899Z,96149.67
2019-02-11T06:26:57.592Z,96166.48
2019-02-11T06:29:23.669Z,96166.48
2019-02-11T06:31:49.485Z,96190.86
2019-02-11T06:34:15.638Z,96196.91
2019-02-11T06:36:41.498Z,96202.30
2019-02-11T06:39:10.350Z,96207.06
2019-02-11T06:41:36.183Z,96225.86
2019-02-11T06:44:04.746Z,96215.95
2019-02-11T06:46:30.604Z,96234.58
2019-02-11T06:48:59.213Z,96231.11
2019-02-11T06:51:25.048Z,96251.48
2019-02-11T06:53:54.223Z,96256.24
2019-02-11T06:56:20.347Z,96261.19
2019-02-11T06:58:49.039Z,96264.06
2019-02-11T07:01:15.118Z,96290.85
2019-02-11T07:03:44.158Z,96279.56
2019-02-11T07:06:09.967Z,96305.72
2019-02-11T07:08:35.804Z,96293.62
2019-02-11T07:11:01.617Z,96296.72
2019-02-11T07:13:27.488Z,96319.16
2019-02-11T07:15:54.594Z,96319.16
2019-02-11T07:18:20.448Z,96347.30
2019-02-11T07:20:50.787Z,96330.34
2019-02-11T07:23:16.636Z,96333.44
2019-02-11T07:25:45.216Z,96335.23
2019-02-11T07:28:11.054Z,96366.09
2019-02-11T07:30:39.630Z,96349.94
2019-02-11T07:33:05.464Z,96379.88
2019-02-11T07:35:34.451Z,96370.37
2019-02-11T07:38:00.339Z,96365.87
2019-02-11T07:40:29.121Z,96381.69
2019-02-11T07:43:03.047Z,96381.78
2019-02-11T07:45:30.796Z,96385.30
2019-02-11T07:47:56.613Z,96394.59
2019-02-11T07:50:22.412Z,96392.19
2019-02-11T07:52:48.251Z,96404.15
2019-02-11T07:55:14.100Z,96411.14
2019-02-11T07:57:39.935Z,96410.19
2019-02-11T08:00:08.026Z,96416.96
2019-02-11T08:02:33.870Z,96414.39
2019-02-11T08:04:59.766Z,96429.26
2019-02-11T08:07:25.595Z,96426.73
2019-02-11T08:09:51.593Z,96432.06
2019-02-11T08:12:20.416Z,96434.14
2019-02-11T08:14:46.266Z,96447.51
2019-02-11T08:17:15.167Z,96437.89
2019-02-11T08:19:41.315Z,96465.81
2019-02-11T08:22:07.278Z,96445.56
2019-02-11T08:24:33.401Z,96450.92
2019-02-11T08:26:59.230Z,96452.20
2019-02-11T08:29:28.416Z,96456.50
2019-02-11T08:31:54.549Z,96478.05
2019-02-11T08:34:20.647Z,96458.80
2019-02-11T08:36:46.494Z,96460.98
2019-02-11T08:39:14.990Z,96470.00
2019-02-11T08:41:41.108Z,96472.69
2019-02-11T08:44:10.473Z,96486.42
2019-02-11T08:46:36.324Z,96473.79
2019-02-11T08:49:04.337Z,96492.42
2019-02-11T08:51:30.287Z,96491.65
2019-02-11T08:54:00.880Z,96480.80
2019-02-11T08:56:26.969Z,96487.82
2019-02-11T08:58:52.796Z,96492.43
2019-02-11T09:01:18.919Z,96498.41
2019-02-11T09:03:44.911Z,96508.34
2019-02-11T09:06:10.821Z,96497.60
2019-02-11T09:08:36.629Z,96508.24
2019-02-11T09:11:07.212Z,96511.16
2019-02-11T09:13:33.334Z,96517.46
2019-02-11T09:16:00.515Z,96513.57
2019-02-11T09:18:26.343Z,96512.67
2019-02-11T09:20:57.055Z,96521.02
2019-02-11T09:23:23.161Z,96537.91
2019-02-11T09:25:51.864Z,96542.72
2019-02-11T09:28:17.724Z,96555.22
2019-02-11T09:30:46.584Z,96562.30
2019-02-11T09:33:12.440Z,96563.59
2019-02-11T09:35:38.347Z,96559.05
2019-02-11T09:38:04.275Z,96557.13
2019-02-11T09:40:30.381Z,96562.73
2019-02-11T09:42:56.208Z,96563.87
2019-02-11T09:45:24.546Z,96566.07
2019-02-11T09:47:53.814Z,96567.36
2019-02-11T09:50:23.306Z,96570.63
2019-02-11T09:52:50.751Z,96574.97
2019-02-11T09:55:19.524Z,96569.10
2019-02-11T09:57:45.637Z,96583.65
2019-02-11T10:00:11.741Z,96580.66
2019-02-11T10:02:37.602Z,96596.20
2019-02-11T10:05:04.625Z,96554.93
2019-02-11T10:07:30.722Z,96603.77
2019-02-11T10:09:56.631Z,96614.30
2019-02-11T10:12:22.410Z,96618.03
2019-02-11T10:14:48.720Z,96626.80
2019-02-11T10:17:14.826Z,96625.83
2019-02-11T10:19:41.585Z,96641.96
2019-02-11T10:22:07.399Z,96650.42
2019-02-11T10:24:36.125Z,96637.66
2019-02-11T10:27:02.275Z,96640.37
2019-02-11T10:29:31.094Z,96631.82
2019-02-11T10:31:56.951Z,96656.28
2019-02-11T10:34:28.516Z,96659.32
2019-02-11T10:36:54.638Z,96664.01
2019-02-11T10:39:20.481Z,96618.69
2019-02-11T10:41:46.308Z,96681.23
2019-02-11T10:44:15.666Z,96688.06
2019-02-11T10:46:41.504Z,96683.33
2019-02-11T10:49:07.348Z,96696.09
2019-02-11T10:51:33.192Z,96692.41
2019-02-11T10:53:59.022Z,96704.69
2019-02-11T10:56:28.367Z,96721.16
2019-02-11T10:58:54.477Z,96733.63
2019-02-11T11:01:23.823Z,96725.25
2019-02-11T11:03:50.002Z,96737.27
2019-02-11T11:06:18.717Z,96725.52
2019-02-11T11:08:44.813Z,96747.88
2019-02-11T11:11:13.478Z,96734.77
2019-02-11T11:13:39.576Z,96732.38
2019-02-11T11:16:08.501Z,96750.26
2019-02-11T11:18:34.591Z,96770.97
2019-02-11T11:21:00.439Z,96764.10
2019-02-11T11:23:26.368Z,96770.53
2019-02-11T11:25:52.503Z,96760.38
2019-02-11T11:28:18.392Z,96770.05
2019-02-11T11:30:44.458Z,96783.38
2019-02-11T11:33:13.495Z,96783.38
2019-02-11T11:35:39.568Z,96796.49
2019-02-11T11:38:08.719Z,96783.77
2019-02-11T11:40:34.874Z,96794.30
2019-02-11T11:43:03.855Z,96779.66
2019-02-11T11:45:30.045Z,96792.98
2019-02-11T11:47:58.982Z,96790.79
2019-02-11T11:50:24.913Z,96801.83
2019-02-11T11:52:54.331Z,96792.53
2019-02-11T11:55:21.233Z,96790.87
2019-02-11T11:57:47.050Z,96795.38
2019-02-11T12:00:17.094Z,96795.45
2019-02-11T12:02:59.576Z,96795.05
2019-02-11T12:05:10.880Z,96797.30
2019-02-11T12:07:36.704Z,96812.70
2019-02-11T12:10:03.057Z,96812.27
2019-02-11T12:12:28.894Z,96827.09
2019-02-11T12:14:54.728Z,96833.62
2019-02-11T12:17:20.870Z,96836.25
2019-02-11T12:19:49.494Z,96835.48
2019-02-11T12:22:15.445Z,96835.43
2019-02-11T12:24:44.329Z,96840.27
2019-02-11T12:27:10.160Z,96841.58
2019-02-11T12:29:38.756Z,96820.95
2019-02-11T12:32:04.642Z,96819.98
2019-02-11T12:34:33.229Z,96796.95
2019-02-11T12:36:59.075Z,96819.92
2019-02-11T12:39:24.888Z,96831.05
2019-02-11T12:41:50.735Z,96834.80
2019-02-11T12:44:16.543Z,96833.98
2019-02-11T12:46:45.422Z,96844.68
2019-02-11T12:49:11.266Z,96854.30
2019-02-11T12:51:39.975Z,96846.16
2019-02-11T12:54:05.818Z,96867.97
2019-02-11T12:56:34.670Z,96850.79
2019-02-11T12:59:00.493Z,96875.30
2019-02-11T13:01:29.053Z,96864.46
2019-02-11T13:03:54.917Z,96879.45
2019-02-11T13:06:23.474Z,96861.07
2019-02-11T13:08:49.386Z,96866.91
2019-02-11T13:11:16.665Z,96878.69
2019-02-11T13:13:42.463Z,96878.14
2019-02-11T13:16:08.305Z,96881.38
2019-02-11T13:18:38.867Z,96877.32
2019-02-11T13:21:01.900Z,96871.88
2019-02-11T13:23:30.621Z,96875.93
2019-02-11T13:25:56.537Z,96898.30
2019-02-11T13:28:25.434Z,96886.03
2019-02-11T13:30:51.312Z,96884.31
2019-02-11T13:33:20.223Z,96880.41
2019-02-11T13:35:46.057Z,96902.05
2019-02-11T13:38:15.194Z,96885.78
2019-02-11T13:40:41.046Z,96900.69
2019-02-11T13:43:06.916Z,96884.91
2019-02-11T13:45:32.808Z,96900.00
2019-02-11T13:48:03.403Z,96896.28
2019-02-11T13:50:29.359Z,96902.39
2019-02-11T13:52:55.752Z,96903.16
2019-02-11T13:55:22.021Z,96904.23
2019-02-11T13:57:48.195Z,96905.16
2019-02-11T14:00:19.239Z,96911.98
2019-02-11T14:02:47.563Z,96920.20
2019-02-11T14:05:13.389Z,96911.61
2019-02-11T14:07:39.243Z,96925.38
2019-02-11T14:10:05.548Z,96925.38
2019-02-11T14:12:31.375Z,96932.05
2019-02-11T14:14:59.985Z,96938.98
2019-02-11T14:17:25.797Z,96946.67
2019-02-11T14:19:58.508Z,96950.53
2019-02-11T14:22:24.357Z,96960.68
2019-02-11T14:24:50.198Z,96964.75
2019-02-11T14:27:16.204Z,96964.64
2019-02-11T14:29:42.092Z,96972.27
2019-02-11T14:32:07.951Z,96971.39
2019-02-11T14:34:34.039Z,96971.72
2019-02-11T14:37:00.016Z,96978.41
2019-02-11T14:39:25.830Z,96977.02
2019-02-11T14:41:54.559Z,96987.70
2019-02-11T14:44:20.389Z,96987.34
2019-02-11T14:46:48.381Z,96991.97
2019-02-11T14:49:14.190Z,97004.94
2019-02-11T14:51:42.945Z,97007.91
2019-02-11T14:54:09.057Z,97002.08
2019-02-11T14:56:38.274Z,97008.03
2019-02-11T14:59:04.523Z,97011.38
2019-02-11T15:01:33.777Z,97009.78
2019-02-11T15:03:59.627Z,97014.47
2019-02-11T15:06:25.806Z,97014.52
2019-02-11T15:08:51.914Z,97012.02
2019-02-11T15:11:17.737Z,97034.34
2019-02-11T15:13:46.718Z,97035.73
2019-02-11T15:16:12.550Z,97040.81
2019-02-11T15:18:41.144Z,97045.14
2019-02-11T15:21:07.033Z,97062.38
2019-02-11T15:23:35.592Z,97059.59
2019-02-11T15:26:01.723Z,97057.34
2019-02-11T15:28:30.606Z,97059.94
2019-02-11T15:30:56.472Z,97079.66
2019-02-11T15:33:25.073Z,97068.91
2019-02-11T15:35:50.896Z,97092.05
2019-02-11T15:38:17.935Z,97065.21
2019-02-11T15:40:44.074Z,97058.73
2019-02-11T15:43:10.370Z,97065.83
2019-02-11T15:45:36.168Z,97075.13
2019-02-11T15:48:01.997Z,97087.91
2019-02-11T15:50:30.975Z,97097.66
2019-02-11T15:52:56.830Z,97117.53
2019-02-11T15:55:25.420Z,97117.51
2019-02-11T15:57:51.249Z,97140.09
2019-02-11T16:00:23.621Z,97131.48
2019-02-11T16:02:51.545Z,97123.59
2019-02-11T16:05:18.207Z,97127.13
2019-02-11T16:07:44.146Z,97141.06
2019-02-11T16:10:12.310Z,97135.24
2019-02-11T16:12:38.183Z,97134.16
2019-02-11T16:15:06.941Z,97148.80
2019-02-11T16:17:33.063Z,97140.28
2019-02-11T16:19:58.870Z,97146.31
2019-02-11T16:22:25.012Z,97139.04
2019-02-11T16:24:50.985Z,97140.63
2019-02-11T16:27:17.110Z,97148.94
2019-02-11T16:29:43.205Z,97147.41
2019-02-11T16:32:11.968Z,97143.75
2019-02-11T16:34:37.903Z,97154.99
2019-02-11T16:37:06.913Z,97155.92
2019-02-11T16:39:32.723Z,97168.74
2019-02-11T16:42:01.325Z,97169.17
2019-02-11T16:44:27.201Z,97193.59
2019-02-11T16:46:55.772Z,97184.57
2019-02-11T16:49:21.880Z,97202.91
2019-02-11T16:51:50.826Z,97189.80
2019-02-11T16:54:16.762Z,97209.52
2019-02-11T16:56:42.594Z,97193.63
2019-02-11T16:59:08.786Z,97191.48
2019-02-11T17:01:34.633Z,97197.59
2019-02-11T17:04:00.497Z,97195.84
2019-02-11T17:06:26.326Z,97206.09
2019-02-11T17:08:57.352Z,97216.83
2019-02-11T17:11:23.708Z,97224.75
2019-02-11T17:13:49.921Z,97212.61
2019-02-11T17:16:15.789Z,97219.59
2019-02-11T17:18:44.404Z,97224.89
2019-02-11T17:21:10.227Z,97224.00
2019-02-11T17:23:41.676Z,97246.70
2019-02-11T17:26:07.514Z,97242.48
2019-02-11T17:28:36.087Z,97238.58
2019-02-11T17:31:02.329Z,97259.06
2019-02-11T17:33:28.170Z,97243.71
2019-02-11T17:35:54.023Z,97248.47
2019-02-11T17:38:20.296Z,97255.52
2019-02-11T17:40:46.122Z,97269.41
2019-02-11T17:43:11.948Z,97274.03
2019-02-11T17:45:43.030Z,97291.30
2019-02-11T17:48:09.254Z,97275.03
2019-02-11T17:50:35.201Z,97280.36
2019-02-11T17:53:04.808Z,97290.27
2019-02-11T17:55:31.103Z,97301.14
2019-02-11T17:57:57.231Z,97303.30
2019-02-11T18:00:34.599Z,97301.55
2019-02-11T18:03:00.405Z,97304.28
2019-02-11T18:05:26.321Z,97299.72
2019-02-11T18:07:52.144Z,97298.10
2019-02-11T18:10:17.993Z,97305.44
2019-02-11T18:12:43.863Z,97297.34
2019-02-11T18:15:09.888Z,97309.80
2019-02-11T18:17:35.977Z,97330.47
2019-02-11T18:20:02.357Z,97330.63
2019-02-11T18:22:29.262Z,97367.08
2019-02-11T18:24:55.214Z,97345.05
2019-02-11T18:27:21.099Z,97351.55
2019-02-11T18:29:46.965Z,97350.30
2019-02-11T18:32:15.462Z,97357.16
2019-02-11T18:34:41.289Z,97360.08
2019-02-11T18:37:09.826Z,97366.95
2019-02-11T18:39:35.663Z,97366.49
2019-02-11T18:42:06.500Z,97363.52
2019-02-11T18:44:32.710Z,97374.10
2019-02-11T18:46:58.861Z,97372.29
2019-02-11T18:49:25.661Z,97379.10
2019-02-11T18:51:51.715Z,97377.56
2019-02-11T18:54:17.556Z,97387.36
2019-02-11T18:57:03.607Z,97393.31
2019-02-11T18:59:29.521Z,97395.73
2019-02-11T19:01:55.328Z,97403.41
2019-02-11T19:04:21.149Z,97412.05
2019-02-11T19:06:46.989Z,97415.92
2019-02-11T19:09:14.122Z,97428.34
2019-02-11T19:11:39.996Z,97433.13
2019-02-11T19:14:06.085Z,97429.23
2019-02-11T19:16:32.206Z,97437.02
2019-02-11T19:18:58.340Z,97440.83
2019-02-11T19:21:24.449Z,97447.42
2019-02-11T19:23:50.652Z,97451.20
2019-02-11T19:26:16.773Z,97458.88
2019-02-11T19:28:42.747Z,97453.28
2019-02-11T19:31:08.686Z,97460.08
2019-02-11T19:33:34.694Z,97460.47
2019-02-11T19:36:00.812Z,97456.09
2019-02-11T19:38:26.675Z,97462.53
2019-02-11T19:40:52.650Z,97465.63
2019-02-11T19:43:18.472Z,97463.20
2019-02-11T19:45:47.041Z,97484.94
2019-02-11T19:48:12.872Z,97496.96
2019-02-11T19:50:41.440Z,97492.38
2019-02-11T19:53:07.571Z,97525.05
2019-02-11T19:55:35.304Z,97511.77
2019-02-11T19:58:01.452Z,97515.34
2019-02-11T20:00:27.553Z,97515.77
2019-02-11T20:02:53.429Z,97515.71
2019-02-11T20:05:19.244Z,97518.29
2019-02-11T20:07:47.954Z,97520.41
2019-02-11T20:10:19.954Z,97543.98
2019-02-11T20:12:46.118Z,97525.40
2019-02-11T20:15:27.257Z,97530.61
2019-02-11T20:17:53.071Z,97538.95
2019-02-11T20:20:20.249Z,97543.92
2019-02-11T20:22:46.063Z,97556.13
2019-02-11T20:25:12.033Z,97563.66
2019-02-11T20:27:37.958Z,97571.03
2019-02-11T20:30:31.422Z,97577.69
2019-02-11T20:32:57.541Z,97576.58
2019-02-11T20:35:23.480Z,97585.34
2019-02-11T20:37:49.276Z,97566.78
2019-02-11T20:40:17.989Z,97570.59
2019-02-11T20:42:44.090Z,97573.64
2019-02-11T20:45:12.751Z,97575.70
2019-02-11T20:47:38.818Z,97583.42
2019-02-11T20:50:09.298Z,97581.44
2019-02-11T20:52:34.042Z,97579.50
2019-02-11T20:54:59.862Z,97588.22
2019-02-11T20:57:25.686Z,97591.60
2019-02-11T20:59:51.525Z,97598.67
2019-02-11T21:02:17.357Z,97606.60
2019-02-11T21:04:43.211Z,97608.48
2019-02-11T21:07:09.045Z,97608.81
2019-02-11T21:09:35.157Z,97618.28
2019-02-11T21:12:01.292Z,97623.84
2019-02-11T21:14:27.154Z,97623.44
2019-02-11T21:16:52.983Z,97622.13
2019-02-11T21:19:18.792Z,97627.53
2019-02-11T21:21:44.625Z,97639.48
2019-02-11T21:24:10.722Z,97639.87
2019-02-11T21:26:36.607Z,97640.18
2019-02-11T21:29:02.985Z,97637.49
2019-02-11T21:31:28.810Z,97635.32
2019-02-11T21:33:54.645Z,97601.56
2019-02-11T21:36:20.647Z,97642.59
2019-02-11T21:38:46.483Z,97634.53
2019-02-11T21:41:12.332Z,97632.06
2019-02-11T21:43:38.444Z,97615.94
2019-02-11T21:46:04.269Z,97605.63
2019-02-11T21:48:30.381Z,97602.68
2019-02-11T21:50:56.209Z,97595.50
2019-02-11T21:53:22.041Z,97596.03
2019-02-11T21:55:48.167Z,97596.59
2019-02-11T21:58:14.245Z,97593.24
2019-02-11T22:00:40.095Z,97587.71
2019-02-11T22:03:05.966Z,97581.34
2019-02-11T22:05:32.091Z,97594.19
2019-02-11T22:07:57.917Z,97604.48
2019-02-11T22:10:23.744Z,97612.47
2019-02-11T22:12:49.586Z,97615.20
2019-02-11T22:15:15.431Z,97621.97
2019-02-11T22:17:44.225Z,97644.63
2019-02-11T22:20:12.873Z,97625.83
2019-02-11T22:22:39.555Z,97636.42
2019-02-11T22:25:07.491Z,97632.07
2019-02-11T22:27:33.622Z,97633.47
2019-02-11T22:29:59.725Z,97637.47
2019-02-11T22:32:25.662Z,97642.69
2019-02-11T22:34:54.824Z,97651.84
2019-02-11T22:37:20.643Z,97660.04
2019-02-11T22:39:46.498Z,97670.77
2019-02-11T22:42:15.008Z,97674.97
2019-02-11T22:44:40.927Z,97683.23
2019-02-11T22:47:06.767Z,97690.61
2019-02-11T22:49:32.862Z,97691.48
2019-02-11T22:51:58.708Z,97697.80
2019-02-11T22:54:29.298Z,97698.75
2019-02-11T22:56:55.145Z,97708.27
2019-02-11T22:59:23.915Z,97711.23
2019-02-11T23:01:49.784Z,97734.44
2019-02-11T23:04:15.605Z,97713.88
2019-02-11T23:06:41.731Z,97715.58
2019-02-11T23:09:09.860Z,97724.09
2019-02-11T23:11:35.733Z,97722.87
2019-02-11T23:14:01.572Z,97726.39
2019-02-11T23:16:30.749Z,97723.41
2019-02-11T23:18:56.558Z,97723.42
2019-02-11T23:21:25.684Z,97724.57
2019-02-11T23:23:51.777Z,97729.64
2019-02-11T23:26:18.030Z,97724.44
2019-02-11T23:28:43.901Z,97726.92
2019-02-11T23:31:14.575Z,97731.13
2019-02-11T23:33:40.441Z,97737.42
2019-02-11T23:36:07.154Z,97739.02
2019-02-11T23:38:33.306Z,97737.19
2019-02-11T23:40:59.397Z,97741.94
2019-02-11T23:43:25.263Z,97741.43
2019-02-11T23:45:51.447Z,97742.72
2019-02-11T23:48:20.474Z,97741.50
2019-02-11T23:50:47.177Z,97765.13
2019-02-11T23:53:16.361Z,97751.08
2019-02-11T23:55:42.173Z,97770.01
2019-02-11T23:58:11.003Z,97754.58
